UKDE/OZH METAR and TAF weather

Enter ICAO airport designator
Station Type Date Time Source
UKDE METAR 2020/07/04 08:30 UTC NOAA

UKDE 040830Z 06003MPS 330V100 CAVOK 34/15 Q1011 R02R/090070 NOSIG


Station Type Date Time Source
UKDE Decoded METAR 2020/07/04 08:30 UTC NOAA

Zaporizhzhia / Mokraya, Ukraine (UKDE) 47-52-02N 035-18-59E
Jul 04, 2020 - 04:30 AM EDT / 2020.07.04 0830 UTC
Wind: from the ENE (060 degrees) at 7 MPH (6 KT) (direction variable):0
Visibility: greater than 7 mile(s):0
Temperature: 93 F (34 C)
Dew Point: 59 F (15 C)
Relative Humidity: 32%
Pressure (altimeter): 29.85 in. Hg (1011 hPa)
ob: UKDE 040830Z 06003MPS 330V100 CAVOK 34/15 Q1011 R02R/090070 NOSIG
cycle: 8

Station Type Date Time Source
UKDE TAF 2020/06/03 15:15 UTC NOAA

TAF
AMD TAF
AMD UKDE 031510Z 0315/0524 21007MPS 9999 BKN030CB
TEMPO 0315/0318 VRB15G20MPS 0300 +TSRAGR SQ BKN007 BKN013CB

Example: see airport list